Welcome to Des Moines Iowa Weather. I am an independent private personal weather station on the Northwest Side of Des Moines, Iowa. Just East of Windsor Heights and just West of Glendale . This site is also mobile friendly.

There are no active watches, warnings or advisories


Visit our other weather sites:

Historical Data

Weather Station Setup



Weather Underground History page Text

Daily Summary for January 26, 2018 Units:  Metric    English   Both
« Previous Day
Next Day »
Daily Weekly Monthly Yearly Custom
  High: Low: Average:
Temperature: 14.1 °C 2.3 °C 8.1 °C
Dew Point: 4.4 °C -2.8 °C 0.5 °C
Humidity: 79 % 51 % 60 %
Wind Speed: 17.7 km/h 0 km/h 3.5 km/h
Wind Gust: 25.7 km/h - -
Wind:- - SSW
Pressure: 1016.8 hPa 1007.7 hPa -
Precipitation: 0 mm    
Historical Graphs
 
 
Tabular Data for January 26, 2018
Time Temperature Dew Point Pressure Wind Wind Speed Wind Gust Humidity Rainfall Rate (Hourly)
00:03 5.3 °C -1.7 °C 1015.1 hPa Calm   9.7 km/h 61 % 0 mm
00:18 5.7 °C -1.7 °C 1014.8 hPa Calm   8 km/h 59 % 0 mm
00:33 5.7 °C -2.2 °C 1014.8 hPa SSE 3.2 km/h 6.4 km/h 58 % 0 mm
00:48 5.7 °C -2.2 °C 1014.8 hPa Calm   1.6 km/h 58 % 0 mm
01:03 5.6 °C -2.2 °C 1014.4 hPa Calm   6.4 km/h 58 % 0 mm
01:18 6.1 °C -2.2 °C 1014.4 hPa SSW 1.6 km/h 12.9 km/h 56 % 0 mm
01:34 6.7 °C -2.2 °C 1014.4 hPa Calm   12.9 km/h 53 % 0 mm
01:49 7.3 °C -2.2 °C 1014.4 hPa South 3.2 km/h 14.5 km/h 51 % 0 mm
02:04 7.2 °C -2.2 °C 1014.4 hPa Calm   9.7 km/h 52 % 0 mm
02:19 7.1 °C -2.8 °C 1014.8 hPa South 8 km/h 8 km/h 51 % 0 mm
02:37 7.1 °C -2.8 °C 1014.4 hPa South 4.8 km/h 12.9 km/h 51 % 0 mm
02:49 7.1 °C -2.8 °C 1014.4 hPa SSE 6.4 km/h 12.9 km/h 51 % 0 mm
03:07 6.9 °C -2.8 °C 1014.4 hPa South 3.2 km/h 12.9 km/h 51 % 0 mm
03:19 7 °C -2.8 °C 1014.4 hPa South 1.6 km/h 14.5 km/h 51 % 0 mm
03:34 7 °C -2.8 °C 1014.1 hPa South 4.8 km/h 9.7 km/h 51 % 0 mm
03:49 6.8 °C -2.8 °C 1014.1 hPa SSW 1.6 km/h 9.7 km/h 52 % 0 mm
04:04 6.4 °C -2.8 °C 1013.8 hPa South 3.2 km/h 9.7 km/h 53 % 0 mm
04:19 6.4 °C -2.2 °C 1013.8 hPa SSW 6.4 km/h 12.9 km/h 54 % 0 mm
04:34 6.4 °C -2.2 °C 1013.4 hPa SSW 3.2 km/h 12.9 km/h 54 % 0 mm
04:49 6.4 °C -2.2 °C 1013.1 hPa SSW 3.2 km/h 11.3 km/h 55 % 0 mm
05:04 6.4 °C -2.2 °C 1012.8 hPa South 9.7 km/h 14.5 km/h 55 % 0 mm
05:19 6.6 °C -2.2 °C 1012.8 hPa SSE 8 km/h 16.1 km/h 55 % 0 mm
05:34 6.8 °C -2.2 °C 1012.4 hPa South 6.4 km/h 16.1 km/h 54 % 0 mm
05:49 6.9 °C -1.7 °C 1012.4 hPa SSW 4.8 km/h 14.5 km/h 54 % 0 mm
06:04 6.9 °C -1.7 °C 1012.4 hPa Calm   14.5 km/h 54 % 0 mm
06:19 6.8 °C -1.7 °C 1012.4 hPa SW 3.2 km/h 12.9 km/h 55 % 0 mm
06:34 6.6 °C -1.7 °C 1012.1 hPa South 4.8 km/h 16.1 km/h 56 % 0 mm
06:49 6.5 °C -1.7 °C 1012.1 hPa South 3.2 km/h 12.9 km/h 56 % 0 mm
07:04 6.5 °C -1.7 °C 1012.1 hPa South 1.6 km/h 11.3 km/h 56 % 0 mm
07:19 6.7 °C -1.7 °C 1012.1 hPa South 3.2 km/h 11.3 km/h 56 % 0 mm
07:34 6.7 °C -1.1 °C 1012.1 hPa SSW 3.2 km/h 12.9 km/h 57 % 0 mm
07:49 6.7 °C -1.1 °C 1011.7 hPa SSW 1.6 km/h 12.9 km/h 57 % 0 mm
08:04 6.8 °C -1.1 °C 1011.7 hPa South 4.8 km/h 16.1 km/h 57 % 0 mm
08:19 7.1 °C -1.1 °C 1011.4 hPa SW 4.8 km/h 16.1 km/h 56 % 0 mm
08:34 7.4 °C -1.1 °C 1011.1 hPa South 1.6 km/h 17.7 km/h 56 % 0 mm
08:49 7.6 °C -0.6 °C 1011.1 hPa SSW 11.3 km/h 12.9 km/h 56 % 0 mm
09:04 7.9 °C -0.6 °C 1011.1 hPa SW 4.8 km/h 16.1 km/h 56 % 0 mm
09:19 8.3 °C -0.6 °C 1011.1 hPa SSE 8 km/h 17.7 km/h 55 % 0 mm
09:34 8.7 °C 0 °C 1011.1 hPa Calm   17.7 km/h 55 % 0 mm
09:50 9.2 °C 0.6 °C 1011.1 hPa SSW 3.2 km/h 17.7 km/h 55 % 0 mm
10:05 9.7 °C 1.1 °C 1011.1 hPa South 3.2 km/h 14.5 km/h 55 % 0 mm
10:20 10.2 °C 1.7 °C 1010.7 hPa South 4.8 km/h 14.5 km/h 55 % 0 mm
10:35 10.5 °C 1.7 °C 1010.7 hPa North 4.8 km/h 17.7 km/h 56 % 0 mm
10:50 10.8 °C 2.2 °C 1010.7 hPa SW 4.8 km/h 20.9 km/h 55 % 0 mm
11:05 11 °C 2.2 °C 1010 hPa SSE 17.7 km/h 19.3 km/h 55 % 0 mm
11:20 11.3 °C 2.2 °C 1010 hPa South 9.7 km/h 24.1 km/h 54 % 0 mm
11:35 11.7 °C 2.8 °C 1009.7 hPa SSE 1.6 km/h 20.9 km/h 54 % 0 mm
11:50 11.9 °C 2.8 °C 1009.4 hPa SSW 11.3 km/h 25.7 km/h 53 % 0 mm
12:05 12.4 °C 2.8 °C 1009 hPa SW 4.8 km/h 17.7 km/h 53 % 0 mm
12:20 12.8 °C 3.9 °C 1008.7 hPa SSW 1.6 km/h 19.3 km/h 54 % 0 mm
12:35 13.3 °C 3.9 °C 1008.4 hPa South 4.8 km/h 19.3 km/h 53 % 0 mm
12:50 13.5 °C 3.9 °C 1008 hPa WSW 6.4 km/h 20.9 km/h 53 % 0 mm
13:05 13.9 °C 3.9 °C 1007.7 hPa SE 4.8 km/h 19.3 km/h 52 % 0 mm
13:20 13.7 °C 3.9 °C 1007.7 hPa North 1.6 km/h 16.1 km/h 52 % 0 mm
13:35 14.1 °C 3.9 °C 1007.7 hPa South 3.2 km/h 24.1 km/h 51 % 0 mm
13:50 13.4 °C 3.9 °C 1007.7 hPa South 3.2 km/h 19.3 km/h 53 % 0 mm
14:05 13.4 °C 3.9 °C 1008 hPa SE 11.3 km/h 22.5 km/h 53 % 0 mm
14:22 12.9 °C 3.9 °C 1008.4 hPa North 4.8 km/h 16.1 km/h 54 % 0 mm
14:36 12.7 °C 3.9 °C 1008.7 hPa SW 4.8 km/h 17.7 km/h 55 % 0 mm
14:51 12.4 °C 3.9 °C 1008.7 hPa Calm   9.7 km/h 56 % 0 mm
15:10 12.2 °C 3.3 °C 1009 hPa SSW 1.6 km/h 24.1 km/h 56 % 0 mm
15:21 12.2 °C 3.9 °C 1009 hPa SE 6.4 km/h 11.3 km/h 57 % 0 mm
15:36 12.1 °C 3.9 °C 1009 hPa WSW 1.6 km/h 11.3 km/h 57 % 0 mm
15:51 12 °C 3.9 °C 1009 hPa South 4.8 km/h 19.3 km/h 58 % 0 mm
16:06 11.9 °C 3.9 °C 1009 hPa SE 6.4 km/h 9.7 km/h 59 % 0 mm
16:21 11.6 °C 3.9 °C 1009.4 hPa SW 6.4 km/h 6.4 km/h 60 % 0 mm
16:36 11.5 °C 3.9 °C 1009.4 hPa SE 3.2 km/h 8 km/h 61 % 0 mm
16:51 11.4 °C 4.4 °C 1009.4 hPa SSE 1.6 km/h 9.7 km/h 62 % 0 mm
17:06 11.2 °C 4.4 °C 1009.7 hPa Calm   8 km/h 63 % 0 mm
17:21 11.1 °C 4.4 °C 1009.7 hPa Calm   1.6 km/h 64 % 0 mm
17:36 10.9 °C 4.4 °C 1010.4 hPa Calm   9.7 km/h 65 % 0 mm
17:51 10.6 °C 4.4 °C 1010.4 hPa Calm     65 % 0 mm
18:06 10.2 °C 4.4 °C 1010.7 hPa Calm   4.8 km/h 67 % 0 mm
18:21 9.9 °C 4.4 °C 1011.1 hPa Calm     68 % 0 mm
18:36 9.6 °C 4.4 °C 1011.4 hPa South 1.6 km/h 4.8 km/h 70 % 0 mm
18:51 8.9 °C 2.8 °C 1012.1 hPa NW 8 km/h 9.7 km/h 65 % 0 mm
19:06 8.2 °C 1.7 °C 1012.4 hPa WNW 1.6 km/h 8 km/h 64 % 0 mm
19:21 7.2 °C 1.1 °C 1012.8 hPa NW 12.9 km/h 16.1 km/h 67 % 0 mm
19:36 6.2 °C 0.6 °C 1013.1 hPa NW 1.6 km/h 14.5 km/h 68 % 0 mm
19:51 5.5 °C 0 °C 1013.4 hPa NW 1.6 km/h 14.5 km/h 69 % 0 mm
20:06 4.9 °C 0 °C 1013.4 hPa WNW 1.6 km/h 8 km/h 71 % 0 mm
20:21 4.5 °C 0 °C 1013.4 hPa NNW 1.6 km/h 9.7 km/h 72 % 0 mm
20:36 4.1 °C -0.6 °C 1013.8 hPa NNW 1.6 km/h 3.2 km/h 73 % 0 mm
20:51 3.8 °C 0 °C 1014.1 hPa Calm   9.7 km/h 75 % 0 mm
21:06 3.5 °C -0.6 °C 1014.1 hPa WNW 4.8 km/h 8 km/h 76 % 0 mm
21:21 3.2 °C -0.6 °C 1014.4 hPa WNW 3.2 km/h 6.4 km/h 77 % 0 mm
21:36 3.1 °C -0.6 °C 1014.8 hPa West 3.2 km/h 6.4 km/h 78 % 0 mm
21:51 3 °C -0.6 °C 1014.8 hPa WNW 1.6 km/h 4.8 km/h 79 % 0 mm
22:06 2.9 °C -0.6 °C 1015.1 hPa Calm   6.4 km/h 79 % 0 mm
22:21 2.8 °C -0.6 °C 1015.5 hPa WNW 1.6 km/h 4.8 km/h 79 % 0 mm
22:36 2.7 °C -0.6 °C 1015.8 hPa WNW 3.2 km/h 4.8 km/h 79 % 0 mm
22:51 2.7 °C -0.6 °C 1015.8 hPa WNW 1.6 km/h 4.8 km/h 79 % 0 mm
23:06 2.6 °C -0.6 °C 1015.8 hPa WNW 1.6 km/h 6.4 km/h 79 % 0 mm
23:21 2.5 °C -0.6 °C 1016.1 hPa WNW 1.6 km/h 6.4 km/h 79 % 0 mm
23:36 2.4 °C -1.1 °C 1016.5 hPa WNW 3.2 km/h 4.8 km/h 79 % 0 mm
23:51 2.3 °C -1.1 °C 1016.8 hPa West 1.6 km/h 6.4 km/h 79 % 0 mm
Des Moines Weather and Climate
Compliments of Weather Underground - 3 mb

Script developed by  Jim McMurry - jmcmurry@mwt.net Adapted for the template by  Wim van der Kuil - Leuven-Template.eu

You find our weather info also at:

Weather Underground

Equipment we use:

Weather-station
Davis VP2 Plus

Weather-program
Davis Weatherlink.Com

Weather-server
iMac (Retina 4K, 21.5-inch, Late 2015)

Provider
Hostmonster.com

Davis VP2 Plus

Davis Weatherlink.Com

iMac (Retina 4K, 21.5-inch, Late 2015)

Hostmonster.com